createdAt,value
2023-02-18T00:00:37.403Z,111.00
2023-02-18T00:03:04.756Z,110.88
2023-02-18T00:05:33.220Z,109.93
2023-02-18T00:08:00.634Z,110.40
2023-02-18T00:10:27.922Z,105.63
2023-02-18T00:12:55.273Z,107.68
2023-02-18T00:15:22.562Z,108.00
2023-02-18T00:17:49.888Z,105.60
2023-02-18T00:20:17.305Z,107.15
2023-02-18T00:22:44.645Z,104.80
2023-02-18T00:25:13.968Z,99.78
2023-02-18T00:27:41.326Z,100.68
2023-02-18T00:30:09.203Z,103.50
2023-02-18T00:32:36.621Z,101.88
2023-02-18T00:35:04.495Z,100.28
2023-02-18T00:37:33.877Z,100.32
2023-02-18T00:40:03.006Z,99.18
2023-02-18T00:42:31.037Z,99.35
2023-02-18T00:44:58.313Z,98.63
2023-02-18T00:47:25.854Z,100.72
2023-02-18T00:49:53.193Z,96.38
2023-02-18T00:52:20.561Z,91.35
2023-02-18T00:54:47.985Z,82.72
2023-02-18T00:57:18.299Z,70.20
2023-02-18T00:59:45.740Z,74.85
2023-02-18T01:02:13.212Z,72.57
2023-02-18T01:04:40.685Z,69.40
2023-02-18T01:07:10.391Z,71.30
2023-02-18T01:09:37.789Z,67.95
2023-02-18T01:12:05.505Z,66.32
2023-02-18T01:14:33.230Z,65.65
2023-02-18T01:17:00.579Z,70.43
2023-02-18T01:19:27.861Z,67.55
2023-02-18T01:21:55.284Z,70.63
2023-02-18T01:24:22.602Z,70.45
2023-02-18T01:26:50.053Z,84.45
2023-02-18T01:29:17.376Z,82.05
2023-02-18T01:31:44.852Z,81.30
2023-02-18T01:34:15.194Z,80.93
2023-02-18T01:36:42.521Z,86.78
2023-02-18T01:39:09.815Z,86.45
2023-02-18T01:41:37.167Z,87.13
2023-02-18T01:44:17.565Z,88.72
2023-02-18T01:46:46.935Z,85.60
2023-02-18T01:49:23.508Z,83.63
2023-02-18T01:51:57.778Z,87.93
2023-02-18T01:54:32.164Z,85.78
2023-02-18T01:57:06.096Z,84.90
2023-02-18T01:59:38.792Z,82.93
2023-02-18T02:02:10.946Z,84.70
2023-02-18T02:04:40.692Z,82.65
2023-02-18T02:07:10.264Z,83.50
2023-02-18T02:09:39.731Z,82.63
2023-02-18T02:12:35.052Z,82.07
2023-02-18T02:15:08.440Z,79.13
2023-02-18T02:18:13.034Z,78.75
2023-02-18T02:21:20.657Z,79.55
2023-02-18T02:24:06.260Z,81.30
2023-02-18T02:27:07.066Z,82.75
2023-02-18T02:30:01.677Z,78.05
2023-02-18T02:32:34.715Z,82.40
2023-02-18T02:35:13.954Z,81.72
2023-02-18T02:37:52.905Z,82.35
2023-02-18T02:40:43.921Z,83.13
2023-02-18T02:43:20.436Z,82.80
2023-02-18T02:46:12.212Z,86.80
2023-02-18T02:48:46.724Z,85.53
2023-02-18T02:51:36.179Z,90.63
2023-02-18T02:54:24.936Z,87.00
2023-02-18T02:57:29.008Z,87.38
2023-02-18T03:00:10.382Z,84.47
2023-02-18T03:02:56.691Z,90.82
2023-02-18T03:05:36.192Z,85.88
2023-02-18T03:08:46.156Z,89.38
2023-02-18T03:11:16.023Z,85.70
2023-02-18T03:14:02.160Z,88.22
2023-02-18T03:16:51.028Z,86.50
2023-02-18T03:19:32.793Z,85.47
2023-02-18T03:22:27.096Z,86.82
2023-02-18T03:24:57.922Z,81.10
2023-02-18T03:27:29.288Z,80.45
2023-02-18T03:30:07.584Z,75.68
2023-02-18T03:32:36.810Z,82.50
2023-02-18T03:35:17.020Z,83.28
2023-02-18T03:38:01.102Z,79.95
2023-02-18T03:40:33.475Z,82.95
2023-02-18T03:43:02.088Z,82.65
2023-02-18T03:45:29.516Z,78.78
2023-02-18T03:47:57.304Z,76.15
2023-02-18T03:50:25.080Z,75.72
2023-02-18T03:52:52.514Z,75.13
2023-02-18T03:55:21.164Z,79.15
2023-02-18T03:57:48.521Z,79.68
2023-02-18T04:00:16.035Z,80.55
2023-02-18T04:02:43.361Z,80.78
2023-02-18T04:05:11.138Z,84.82
2023-02-18T04:07:38.776Z,83.95
2023-02-18T04:10:07.121Z,82.13
2023-02-18T04:12:34.507Z,81.47
2023-02-18T04:15:01.983Z,79.32
2023-02-18T04:17:29.344Z,75.40
2023-02-18T04:19:56.649Z,75.35
2023-02-18T04:22:23.933Z,75.50
2023-02-18T04:24:51.313Z,75.50
2023-02-18T04:27:18.668Z,76.40
2023-02-18T04:29:46.142Z,73.22
2023-02-18T04:32:13.508Z,74.95
2023-02-18T04:34:40.902Z,78.85
2023-02-18T04:37:08.259Z,75.00
2023-02-18T04:39:35.661Z,72.53
2023-02-18T04:42:08.734Z,71.15
2023-02-18T04:44:37.604Z,67.28
2023-02-18T04:47:08.263Z,69.20
2023-02-18T04:49:35.831Z,67.28
2023-02-18T04:52:03.628Z,65.15
2023-02-18T04:54:30.974Z,63.03
2023-02-18T04:56:58.345Z,62.13
2023-02-18T04:59:28.055Z,59.60
2023-02-18T05:01:55.614Z,62.97
2023-02-18T05:04:23.178Z,62.05
2023-02-18T05:06:50.572Z,60.90
2023-02-18T05:09:17.954Z,60.75
2023-02-18T05:11:45.892Z,61.63
2023-02-18T05:14:15.350Z,62.50
2023-02-18T05:16:42.617Z,62.25
2023-02-18T05:19:14.119Z,64.18
2023-02-18T05:21:41.605Z,63.53
2023-02-18T05:24:09.923Z,61.78
2023-02-18T05:26:37.392Z,65.78
2023-02-18T05:29:05.203Z,64.20
2023-02-18T05:31:33.405Z,64.35
2023-02-18T05:34:00.882Z,66.18
2023-02-18T05:36:28.204Z,64.80
2023-02-18T05:38:55.597Z,67.15
2023-02-18T05:41:22.890Z,67.05
2023-02-18T05:44:09.115Z,66.90
2023-02-18T05:46:36.467Z,62.10
2023-02-18T05:49:03.844Z,63.75
2023-02-18T05:51:31.181Z,63.25
2023-02-18T05:53:58.677Z,63.88
2023-02-18T05:56:26.082Z,62.75
2023-02-18T05:58:53.436Z,64.85
2023-02-18T06:01:20.807Z,63.63
2023-02-18T06:03:48.196Z,66.40
2023-02-18T06:06:15.613Z,65.43
2023-02-18T06:08:45.122Z,64.30
2023-02-18T06:11:12.424Z,66.03
2023-02-18T06:13:39.822Z,65.28
2023-02-18T06:16:07.507Z,66.72
2023-02-18T06:18:35.154Z,65.95
2023-02-18T06:21:02.422Z,63.50
2023-02-18T06:23:29.817Z,66.60
2023-02-18T06:25:57.387Z,65.78
2023-02-18T06:28:24.774Z,64.32
2023-02-18T06:30:52.158Z,67.20
2023-02-18T06:33:19.495Z,68.07
2023-02-18T06:35:55.488Z,66.43
2023-02-18T06:38:22.899Z,67.47
2023-02-18T06:40:50.560Z,66.30
2023-02-18T06:43:18.899Z,68.57
2023-02-18T06:45:46.493Z,70.63
2023-02-18T06:48:14.816Z,70.43
2023-02-18T06:50:43.146Z,72.18
2023-02-18T06:53:11.285Z,69.30
2023-02-18T06:55:39.126Z,69.68
2023-02-18T06:58:06.367Z,74.10
2023-02-18T07:00:33.804Z,74.82
2023-02-18T07:03:01.155Z,72.88
2023-02-18T07:05:28.811Z,75.78
2023-02-18T07:07:56.180Z,74.03
2023-02-18T07:10:23.747Z,74.35
2023-02-18T07:12:51.109Z,73.28
2023-02-18T07:15:21.510Z,72.50
2023-02-18T07:17:48.802Z,76.07
2023-02-18T07:20:16.242Z,74.78
2023-02-18T07:22:43.499Z,74.32
2023-02-18T07:25:10.850Z,75.18
2023-02-18T07:27:38.202Z,75.60
2023-02-18T07:30:06.415Z,76.93
2023-02-18T07:32:34.129Z,76.80
2023-02-18T07:35:01.491Z,74.13
2023-02-18T07:37:28.874Z,73.28
2023-02-18T07:39:56.963Z,73.20
2023-02-18T07:42:24.427Z,75.68
2023-02-18T07:44:51.759Z,75.68
2023-02-18T07:47:19.785Z,72.78
2023-02-18T07:49:47.707Z,71.32
2023-02-18T07:52:16.141Z,68.60
2023-02-18T07:54:43.592Z,70.97
2023-02-18T07:57:10.898Z,70.30
2023-02-18T07:59:38.471Z,70.78
2023-02-18T08:02:07.674Z,70.38
2023-02-18T08:04:35.065Z,71.13
2023-02-18T08:07:02.461Z,73.93
2023-02-18T08:09:29.825Z,75.05
2023-02-18T08:11:57.919Z,72.25
2023-02-18T08:14:25.357Z,74.15
2023-02-18T08:16:53.382Z,74.20
2023-02-18T08:19:20.804Z,72.63
2023-02-18T08:21:48.163Z,73.68
2023-02-18T08:24:15.549Z,71.00
2023-02-18T08:26:59.164Z,71.63
2023-02-18T08:29:27.540Z,72.85
2023-02-18T08:31:57.237Z,72.55
2023-02-18T08:34:24.712Z,73.85
2023-02-18T08:36:52.085Z,72.80
2023-02-18T08:39:19.471Z,72.95
2023-02-18T08:41:46.802Z,73.03
2023-02-18T08:44:14.327Z,76.18
2023-02-18T08:46:41.834Z,73.70
2023-02-18T08:49:09.748Z,73.20
2023-02-18T08:51:37.123Z,75.05
2023-02-18T08:54:07.398Z,74.97
2023-02-18T08:56:34.741Z,73.50
2023-02-18T08:59:02.091Z,73.20
2023-02-18T09:01:29.469Z,71.95
2023-02-18T09:03:56.946Z,75.00
2023-02-18T09:06:24.384Z,76.10
2023-02-18T09:08:51.888Z,76.95
2023-02-18T09:11:20.254Z,77.38
2023-02-18T09:13:47.901Z,78.50
2023-02-18T09:16:24.446Z,81.60
2023-02-18T09:18:53.319Z,80.10
2023-02-18T09:21:20.873Z,77.13
2023-02-18T09:23:48.228Z,78.45
2023-02-18T09:26:18.020Z,80.97
2023-02-18T09:28:45.408Z,80.68
2023-02-18T09:31:20.851Z,79.28
2023-02-18T09:33:51.273Z,80.85
2023-02-18T09:36:20.479Z,82.35
2023-02-18T09:38:48.243Z,81.32
2023-02-18T09:41:28.104Z,81.63
2023-02-18T09:44:18.446Z,79.70
2023-02-18T09:47:01.260Z,82.97
2023-02-18T09:49:33.702Z,82.03
2023-02-18T09:52:11.462Z,81.53
2023-02-18T09:54:38.960Z,82.30
2023-02-18T09:57:15.802Z,84.28
2023-02-18T09:59:45.070Z,82.75
2023-02-18T10:02:17.491Z,82.18
2023-02-18T10:04:52.187Z,84.93
2023-02-18T10:07:32.240Z,85.82
2023-02-18T10:10:16.681Z,85.35
2023-02-18T10:12:44.613Z,83.75
2023-02-18T10:15:27.228Z,83.63
2023-02-18T10:17:56.916Z,87.93
2023-02-18T10:20:29.070Z,89.35
2023-02-18T10:23:01.321Z,89.13
2023-02-18T10:25:29.686Z,88.53
2023-02-18T10:27:59.846Z,88.80
2023-02-18T10:30:48.932Z,86.72
2023-02-18T10:33:45.122Z,87.28
2023-02-18T10:36:47.956Z,84.47
2023-02-18T10:39:32.789Z,85.05
2023-02-18T10:42:15.054Z,88.57
2023-02-18T10:45:10.500Z,88.43
2023-02-18T10:47:46.624Z,86.13
2023-02-18T10:50:49.744Z,87.72
2023-02-18T10:53:34.586Z,87.78
2023-02-18T10:56:02.467Z,90.18
2023-02-18T10:58:29.783Z,88.75
2023-02-18T11:00:57.815Z,92.00
2023-02-18T11:03:38.488Z,90.13
2023-02-18T11:06:25.080Z,89.97
2023-02-18T11:08:54.889Z,90.88
2023-02-18T11:11:40.456Z,89.80
2023-02-18T11:14:13.555Z,88.65
2023-02-18T11:16:46.488Z,85.07
2023-02-18T11:19:37.047Z,86.20
2023-02-18T11:22:33.144Z,85.35
2023-02-18T11:25:03.134Z,88.55
2023-02-18T11:27:44.044Z,88.60
2023-02-18T11:30:17.612Z,88.63
2023-02-18T11:32:47.992Z,89.95
2023-02-18T11:35:21.470Z,87.85
2023-02-18T11:37:49.631Z,86.32
2023-02-18T11:40:28.505Z,85.78
2023-02-18T11:43:10.339Z,84.18
2023-02-18T11:45:37.765Z,82.75
2023-02-18T11:48:16.254Z,85.07
2023-02-18T11:50:44.624Z,83.95
2023-02-18T11:53:30.860Z,83.10
2023-02-18T11:56:01.688Z,82.45
2023-02-18T11:58:38.341Z,84.40
2023-02-18T12:01:12.289Z,81.55
2023-02-18T12:03:50.865Z,82.68
2023-02-18T12:06:28.119Z,82.93
2023-02-18T12:09:04.092Z,84.95
2023-02-18T12:11:42.766Z,83.72
2023-02-18T12:14:17.679Z,85.45
2023-02-18T12:17:22.470Z,83.90
2023-02-18T12:20:14.304Z,81.43
2023-02-18T12:22:45.005Z,86.47
2023-02-18T12:25:24.378Z,83.40
2023-02-18T12:28:23.840Z,85.93
2023-02-18T12:31:09.586Z,84.65
2023-02-18T12:33:57.645Z,84.25
2023-02-18T12:36:48.253Z,83.55
2023-02-18T12:39:32.088Z,84.75
2023-02-18T12:42:49.096Z,84.68
2023-02-18T12:45:54.012Z,84.22
2023-02-18T12:48:35.397Z,85.10
2023-02-18T12:51:08.734Z,83.22
2023-02-18T12:53:50.206Z,84.05
2023-02-18T12:56:33.947Z,83.60
2023-02-18T12:59:31.789Z,83.10
2023-02-18T13:02:21.851Z,79.85
2023-02-18T13:05:26.479Z,83.15
2023-02-18T13:08:07.205Z,81.50
2023-02-18T13:10:49.403Z,82.40
2023-02-18T13:15:55.345Z,79.60
2023-02-18T13:18:36.530Z,78.60
2023-02-18T13:21:07.583Z,81.47
2023-02-18T13:23:48.144Z,82.43
2023-02-18T13:26:17.906Z,80.80
2023-02-18T13:29:25.995Z,79.68
2023-02-18T13:32:12.027Z,78.05
2023-02-18T13:35:09.493Z,74.90
2023-02-18T13:38:14.400Z,75.85
2023-02-18T13:40:42.591Z,77.70
2023-02-18T13:43:23.713Z,77.78
2023-02-18T13:46:19.398Z,74.93
2023-02-18T13:48:52.909Z,76.43
2023-02-18T13:51:44.197Z,75.72
2023-02-18T13:54:18.423Z,74.28
2023-02-18T13:57:05.640Z,69.78
2023-02-18T13:59:32.946Z,71.32
2023-02-18T14:02:25.301Z,72.32
2023-02-18T14:04:54.561Z,69.40
2023-02-18T14:07:35.882Z,72.45
2023-02-18T14:10:06.435Z,69.38
2023-02-18T14:12:35.657Z,71.65
2023-02-18T14:15:27.486Z,69.47
2023-02-18T14:18:12.852Z,71.05
2023-02-18T14:20:40.227Z,71.45
2023-02-18T14:23:22.817Z,71.15
2023-02-18T14:26:04.963Z,69.53
2023-02-18T14:31:43.061Z,70.15
2023-02-18T14:34:47.276Z,71.65
2023-02-18T14:37:33.627Z,70.57
2023-02-18T14:40:06.961Z,77.15
2023-02-18T14:43:06.474Z,80.07
2023-02-18T14:45:57.993Z,76.78
2023-02-18T14:48:25.312Z,75.32
2023-02-18T14:50:53.773Z,73.82
2023-02-18T14:53:24.954Z,72.10
2023-02-18T14:55:58.418Z,74.47
2023-02-18T14:58:31.607Z,72.07
2023-02-18T15:01:15.106Z,73.35
2023-02-18T15:03:42.409Z,76.53
2023-02-18T15:06:31.581Z,76.85
2023-02-18T15:09:00.765Z,75.50
2023-02-18T15:11:37.664Z,75.00
2023-02-18T15:14:30.553Z,75.07
2023-02-18T15:16:59.048Z,77.63
2023-02-18T15:19:29.476Z,75.78
2023-02-18T15:21:59.662Z,79.75
2023-02-18T15:24:34.280Z,79.18
2023-02-18T15:27:05.605Z,76.53
2023-02-18T15:29:39.264Z,77.88
2023-02-18T15:32:22.239Z,75.70
2023-02-18T15:34:52.070Z,78.03
2023-02-18T15:37:22.604Z,75.72
2023-02-18T15:39:50.668Z,76.35
2023-02-18T15:42:31.181Z,76.93
2023-02-18T15:45:25.814Z,76.78
2023-02-18T15:47:56.039Z,71.78
2023-02-18T15:50:27.901Z,75.47
2023-02-18T15:52:59.770Z,71.78
2023-02-18T15:55:36.962Z,72.78
2023-02-18T15:58:09.553Z,73.72
2023-02-18T16:00:47.239Z,75.68
2023-02-18T16:03:24.718Z,72.93
2023-02-18T16:06:12.845Z,71.47
2023-02-18T16:08:41.145Z,71.43
2023-02-18T16:11:13.604Z,73.60
2023-02-18T16:13:48.131Z,73.82
2023-02-18T16:16:32.218Z,71.75
2023-02-18T16:19:02.502Z,71.68
2023-02-18T16:21:33.067Z,73.15
2023-02-18T16:24:04.366Z,74.00
2023-02-18T16:26:37.380Z,73.68
2023-02-18T16:29:21.188Z,73.57
2023-02-18T16:31:48.729Z,76.20
2023-02-18T16:34:18.334Z,76.72
2023-02-18T16:37:12.609Z,75.53
2023-02-18T16:39:59.407Z,73.60
2023-02-18T16:42:26.863Z,76.00
2023-02-18T16:44:54.238Z,76.15
2023-02-18T16:47:21.672Z,76.28
2023-02-18T16:49:51.078Z,74.43
2023-02-18T16:52:19.464Z,73.95
2023-02-18T16:54:48.245Z,74.63
2023-02-18T16:57:15.602Z,75.63
2023-02-18T16:59:42.934Z,76.53
2023-02-18T17:02:18.579Z,75.35
2023-02-18T17:04:46.048Z,74.93
2023-02-18T17:07:13.473Z,77.38
2023-02-18T17:09:43.669Z,76.75
2023-02-18T17:12:12.345Z,74.25
2023-02-18T17:14:40.285Z,75.32
2023-02-18T17:17:13.949Z,74.35
2023-02-18T17:19:41.381Z,77.07
2023-02-18T17:22:13.149Z,77.45
2023-02-18T17:24:40.548Z,78.28
2023-02-18T17:27:09.937Z,77.38
2023-02-18T17:29:37.386Z,77.82
2023-02-18T17:32:07.691Z,80.28
2023-02-18T17:34:41.252Z,79.78
2023-02-18T17:37:15.146Z,80.13
2023-02-18T17:39:42.449Z,85.63
2023-02-18T17:42:11.770Z,84.45
2023-02-18T17:44:40.516Z,82.18
2023-02-18T17:47:07.812Z,83.30
2023-02-18T17:49:35.172Z,84.45
2023-02-18T17:52:02.492Z,84.70
2023-02-18T17:54:29.923Z,85.85
2023-02-18T17:56:57.285Z,83.03
2023-02-18T17:59:24.667Z,82.32
2023-02-18T18:01:51.978Z,85.65
2023-02-18T18:04:19.503Z,86.75
2023-02-18T18:06:47.732Z,85.68
2023-02-18T18:09:15.113Z,86.78
2023-02-18T18:11:42.609Z,87.07
2023-02-18T18:14:14.712Z,86.80
2023-02-18T18:19:09.220Z,83.35
2023-02-18T18:21:36.986Z,84.95
2023-02-18T18:24:04.564Z,86.03
2023-02-18T18:26:31.927Z,85.78
2023-02-18T18:28:59.271Z,86.10
2023-02-18T18:31:26.637Z,84.97
2023-02-18T18:33:54.078Z,86.00
2023-02-18T18:36:24.088Z,87.00
2023-02-18T18:38:51.882Z,86.70
2023-02-18T18:41:21.764Z,87.05
2023-02-18T18:43:49.883Z,89.50
2023-02-18T18:46:18.153Z,87.85
2023-02-18T18:48:45.961Z,87.57
2023-02-18T18:51:21.427Z,86.35
2023-02-18T18:53:48.868Z,88.25
2023-02-18T18:56:16.115Z,90.13
2023-02-18T18:58:43.540Z,88.88
2023-02-18T19:01:17.175Z,87.95
2023-02-18T19:03:46.180Z,90.65
2023-02-18T19:06:14.842Z,91.07
2023-02-18T19:08:42.535Z,92.07
2023-02-18T19:11:12.030Z,94.03
2023-02-18T19:13:40.367Z,93.15
2023-02-18T19:16:07.910Z,94.15
2023-02-18T19:18:35.401Z,93.15
2023-02-18T19:21:04.692Z,92.78
2023-02-18T19:23:32.979Z,92.22
2023-02-18T19:26:01.271Z,92.75
2023-02-18T19:28:28.652Z,92.05
2023-02-18T19:30:56.046Z,90.07
2023-02-18T19:33:23.627Z,94.43
2023-02-18T19:35:50.922Z,93.47
2023-02-18T19:38:19.016Z,90.40
2023-02-18T19:40:47.000Z,92.03
2023-02-18T19:43:15.075Z,92.38
2023-02-18T19:45:44.806Z,91.85
2023-02-18T19:48:13.244Z,89.30
2023-02-18T19:50:42.012Z,91.95
2023-02-18T19:53:10.273Z,91.55
2023-02-18T19:55:37.587Z,90.55
2023-02-18T19:58:05.126Z,90.90
2023-02-18T20:00:32.460Z,93.32
2023-02-18T20:02:59.872Z,93.13
2023-02-18T20:05:27.248Z,93.15
2023-02-18T20:07:54.595Z,95.38
2023-02-18T20:10:22.132Z,97.68
2023-02-18T20:12:54.156Z,96.50
2023-02-18T20:15:22.177Z,91.28
2023-02-18T20:17:50.060Z,94.93
2023-02-18T20:20:19.155Z,94.25
2023-02-18T20:22:46.539Z,92.38
2023-02-18T20:25:13.973Z,90.97
2023-02-18T20:27:58.203Z,89.93
2023-02-18T20:30:27.656Z,91.25
2023-02-18T20:32:55.078Z,92.97
2023-02-18T20:35:22.601Z,92.60
2023-02-18T20:37:50.033Z,92.43
2023-02-18T20:40:17.707Z,94.90
2023-02-18T20:42:45.315Z,97.93
2023-02-18T20:45:12.585Z,93.40
2023-02-18T20:47:39.981Z,96.68
2023-02-18T20:50:07.639Z,96.43
2023-02-18T20:52:35.058Z,94.63
2023-02-18T20:55:02.433Z,94.50
2023-02-18T20:57:29.872Z,94.25
2023-02-18T20:59:58.398Z,92.55
2023-02-18T21:02:25.878Z,92.10
2023-02-18T21:04:55.779Z,93.78
2023-02-18T21:07:23.210Z,90.97
2023-02-18T21:09:50.456Z,91.45
2023-02-18T21:12:17.810Z,91.38
2023-02-18T21:14:45.294Z,90.75
2023-02-18T21:17:12.704Z,89.95
2023-02-18T21:19:40.694Z,89.70
2023-02-18T21:22:08.042Z,90.70
2023-02-18T21:24:35.414Z,89.15
2023-02-18T21:27:02.805Z,90.28
2023-02-18T21:29:30.275Z,90.90
2023-02-18T21:31:57.751Z,89.10
2023-02-18T21:34:26.044Z,89.82
2023-02-18T21:36:53.419Z,87.93
2023-02-18T21:39:23.608Z,91.60
2023-02-18T21:41:50.957Z,87.40
2023-02-18T21:44:18.293Z,85.43
2023-02-18T21:46:45.749Z,87.65
2023-02-18T21:49:13.328Z,89.25
2023-02-18T21:51:57.918Z,87.68
2023-02-18T21:54:37.004Z,86.68
2023-02-18T21:57:05.308Z,86.35
2023-02-18T21:59:36.189Z,89.63
2023-02-18T22:02:05.427Z,90.57
2023-02-18T22:04:34.595Z,91.63
2023-02-18T22:07:03.465Z,89.88
2023-02-18T22:09:31.114Z,90.70
2023-02-18T22:11:58.597Z,90.13
2023-02-18T22:14:25.919Z,90.38
2023-02-18T22:16:53.449Z,89.18
2023-02-18T22:19:20.861Z,88.40
2023-02-18T22:21:50.954Z,89.13
2023-02-18T22:24:19.365Z,90.47
2023-02-18T22:26:48.393Z,88.97
2023-02-18T22:29:19.404Z,86.75
2023-02-18T22:31:47.396Z,88.82
2023-02-18T22:34:15.610Z,87.68
2023-02-18T22:36:43.072Z,85.82
2023-02-18T22:39:11.379Z,89.65
2023-02-18T22:41:39.273Z,87.20
2023-02-18T22:44:09.050Z,84.82
2023-02-18T22:46:37.376Z,86.80
2023-02-18T22:49:06.625Z,83.47
2023-02-18T22:51:37.851Z,88.97
2023-02-18T22:54:10.657Z,87.13
2023-02-18T22:56:38.079Z,87.78
2023-02-18T22:59:05.989Z,86.97
2023-02-18T23:01:36.619Z,85.43
2023-02-18T23:04:12.337Z,85.30
2023-02-18T23:06:43.336Z,86.25
2023-02-18T23:09:17.226Z,85.03
2023-02-18T23:11:44.796Z,86.03
2023-02-18T23:14:18.303Z,84.72
2023-02-18T23:17:18.595Z,86.30
2023-02-18T23:19:54.772Z,82.72
2023-02-18T23:22:30.538Z,85.03
2023-02-18T23:24:59.218Z,85.22
2023-02-18T23:27:27.225Z,84.35
2023-02-18T23:29:56.410Z,84.50
2023-02-18T23:32:24.946Z,83.15
2023-02-18T23:34:52.370Z,85.70
2023-02-18T23:37:40.621Z,83.35
2023-02-18T23:40:09.005Z,84.75
2023-02-18T23:42:36.379Z,85.43
2023-02-18T23:45:03.851Z,86.88
2023-02-18T23:47:32.033Z,87.05
2023-02-18T23:49:59.300Z,87.78
2023-02-18T23:52:26.691Z,89.07
2023-02-18T23:54:54.438Z,87.97
2023-02-18T23:57:21.809Z,89.55
2023-02-18T23:59:49.117Z,88.38
